Latest Weather Observations for Bombala AWS

IDN60801

Issued at 11:35 am EDT Tuesday 21 October 2014 (issued every 30 minutes, with the page automatically refreshed every 10 minutes)

About weather observations | Map of weather stations | Latest weather observations for NSW | Other Formats
Station Details ID: 070328 Name: BOMBALA AWS Lat: -37.00 Lon: 149.23 Height: 760.5 m
Data from the previous 72 hours. | See also: Recent months at Bombala AWS
Date/Time
EDT
Temp
°C
App
Temp
°C
Dew
Point
Rel
Hum
%
Delta-T
°C
Wind Press
QNH
hPa
Press
MSL
hPa
Rain
since 9 am
mm
Dir
 
Spd
km/h
Gust
km/h
Spd
kts
Gust
kts
21/11:30am 10.4 6.4 6.5 77 1.9 NNE 17 28 9 15 1031.8 1031.3 0.0
21/11:00am 10.4 5.5 6.9 79 1.7 N 22 32 12 17 1032.1 1031.6 0.0
21/10:30am 9.8 4.8 6.3 79 1.7 N 22 30 12 16 1032.1 1031.6 0.0
21/10:00am 9.4 4.5 7.0 85 1.2 N 22 30 12 16 1032.3 1031.7 0.0
21/09:30am 8.9 3.9 6.3 84 1.3 NNE 22 30 12 16 1032.3 1031.7 0.0
21/09:00am 9.1 4.5 5.8 80 1.6 NNE 19 28 10 15 1031.9 1031.4 0.0
21/08:30am 8.2 3.6 5.7 84 1.2 NNE 19 28 10 15 1031.7 1031.2 0.0
21/08:00am 7.9 3.6 5.2 83 1.2 NE 17 32 9 17 1031.7 1031.2 0.0
21/07:30am 7.4 3.1 5.2 86 1.0 NNE 17 22 9 12 1031.4 1030.9 0.0
21/07:00am 7.1 3.2 5.4 89 0.8 NNE 15 22 8 12 1031.4 1030.9 0.0
21/06:30am 6.8 2.9 5.4 91 0.6 NE 15 20 8 11 1031.1 1030.5 0.0
21/06:00am 6.5 2.3 5.5 93 0.5 NE 17 26 9 14 1030.7 1030.2 0.0
21/05:30am 6.5 2.1 4.8 89 0.8 NE 17 32 9 17 1030.6 1030.1 0.0
21/05:00am 5.6 2.0 5.2 97 0.2 NE 13 20 7 11 1030.6 1030.1 0.0
21/04:30am 5.3 2.9 5.2 99 0.0 NE 7 13 4 7 1030.7 1030.2 0.0
21/04:00am 5.1 2.6 5.0 99 0.0 NE 7 13 4 7 1031.0 1030.4 0.0
21/03:30am 5.0 2.7 4.7 98 0.1 NNE 6 9 3 5 1031.1 1030.5 0.0
21/03:00am 5.3 2.8 4.9 97 0.2 NE 7 15 4 8 1031.3 1030.8 0.0
21/02:30am 5.8 2.2 5.2 96 0.3 NE 13 20 7 11 1031.4 1030.9 0.0
21/02:00am 5.6 3.1 4.9 95 0.3 NE 7 20 4 11 1031.6 1031.1 0.0
21/01:30am 5.6 3.3 4.9 95 0.3 ENE 6 9 3 5 1031.9 1031.4 0.0
21/01:00am 6.4 4.1 5.5 94 0.4 NE 7 15 4 8 1032.1 1031.6 0.0
21/12:30am 6.5 3.8 5.6 94 0.4 ENE 9 15 5 8 1032.5 1032.0 0.0
21/12:00am 6.7 4.0 5.7 93 0.5 ENE 9 15 5 8 1032.5 1032.0 0.0
 
Date/Time
EDT
Temp
°C
App
Temp
°C
Dew
Point
Rel
Hum
%
Delta-T
°C
Wind Press
QNH
hPa
Press
MSL
hPa
Rain
since 9 am
mm
Dir
 
Spd
km/h
Gust
km/h
Spd
kts
Gust
kts
20/11:30pm 6.8 4.2 5.9 94 0.4 ENE 9 17 5 9 1032.6 1032.1 0.0
20/11:00pm 6.8 4.2 5.9 94 0.4 ENE 9 15 5 8 1032.5 1032.0 0.0
20/10:30pm 6.7 3.7 6.1 96 0.3 ENE 11 17 6 9 1032.6 1032.1 0.0
20/10:00pm 6.7 3.7 6.1 96 0.3 NE 11 17 6 9 1032.7 1032.2 0.0
20/09:30pm 6.8 3.9 6.4 97 0.2 ENE 11 20 6 11 1032.7 1032.2 0.0
20/09:00pm 7.0 3.7 6.4 96 0.3 ENE 13 20 7 11 1032.6 1032.1 0.0
20/08:30pm 7.1 4.2 6.7 97 0.2 E 11 19 6 10 1032.3 1031.7 0.0
20/08:00pm 7.2 5.1 6.6 96 0.3 ENE 7 13 4 7 1031.9 1031.4 0.0
20/07:30pm 7.4 5.0 6.8 96 0.3 ENE 9 17 5 9 1031.6 1031.1 0.0
20/07:00pm 7.7 4.2 7.0 95 0.3 E 15 20 8 11 1031.4 1030.9 0.0
20/06:30pm 8.1 5.2 6.7 91 0.7 ENE 11 17 6 9 1031.2 1030.7 0.0
20/06:00pm 8.4 4.9 7.0 91 0.7 ENE 15 20 8 11 1031.1 1030.5 0.0
20/05:30pm 8.8 5.0 7.6 92 0.6 ENE 17 22 9 12 1031.0 1030.4 0.0
20/05:00pm 9.7 6.8 8.1 90 0.8 ENE 13 19 7 10 1030.6 1030.1 0.0
20/04:30pm 10.0 7.0 7.6 85 1.2 ENE 13 19 7 10 1030.3 1029.8 0.0
20/04:00pm 11.3 8.7 7.8 79 1.8 ENE 11 17 6 9 1030.2 1029.7 0.0
20/03:30pm 11.3 8.2 7.4 77 2.0 E 13 22 7 12 1030.3 1029.8 0.0
20/03:00pm 11.6 8.2 7.5 76 2.1 E 15 20 8 11 1030.4 1029.9 0.0
20/02:30pm 11.7 7.9 7.6 76 2.1 E 17 22 9 12 1030.6 1030.1 0.0
20/02:00pm 11.1 7.2 7.2 77 1.9 SE 17 22 9 12 1030.7 1030.2 0.0
20/01:30pm 11.6 7.8 7.7 77 2.0 ESE 17 24 9 13 1031.0 1030.4 0.0
20/01:00pm 13.3 11.4 7.5 68 2.9 SE 7 13 4 7 1031.0 1030.4 0.0
20/12:30pm 11.7 9.2 4.7 62 3.3 SE 7 15 4 8 1031.4 1030.9 0.0
20/12:00pm 11.2 9.0 6.1 71 2.5 ESE 7 15 4 8 1031.5 1031.0 0.0
20/11:30am 10.7 7.3 5.7 71 2.4 ESE 13 19 7 10 1031.8 1031.3 0.0
20/11:00am 10.4 6.6 5.6 72 2.3 SE 15 22 8 12 1031.8 1031.3 0.0
20/10:30am 10.2 7.7 5.0 70 2.5 S 7 15 4 8 1031.8 1031.3 0.0
20/10:00am 9.5 6.5 4.1 69 2.5 S 9 13 5 7 1031.7 1031.2 0.0
20/09:30am 8.5 4.1 4.7 77 1.8 S 17 24 9 13 1031.4 1030.9 0.0
20/09:00am 8.0 3.7 5.1 82 1.3 S 17 22 9 12 1031.1 1030.5 0.0
20/08:30am 7.1 3.0 6.4 95 0.3 S 17 28 9 15 1030.9 1030.3 0.0
20/08:00am 7.4 3.7 6.5 94 0.4 S 15 20 8 11 1030.2 1029.7 0.0
20/07:30am 7.2 3.1 6.0 92 0.6 S 17 24 9 13 1029.8 1029.2 0.0
20/07:00am 6.7 3.5 5.2 90 0.7 SSW 11 15 6 8 1029.6 1029.0 0.0
20/06:30am 6.2 1.4 4.5 89 0.8 SSW 19 24 10 13 1029.0 1028.5 0.0
20/06:00am 5.7 3.1 4.0 89 0.8 SSE 7 9 4 5 1028.8 1028.2 0.0
20/05:30am 6.6 1.4 3.8 82 1.2 S 20 30 11 16 1027.9 1027.4 0.0
20/05:00am 7.1 2.4 5.3 88 0.8 S 19 30 10 16 1027.7 1027.2 0.0
20/04:30am 7.8 2.0 6.4 91 0.7 SSW 26 33 14 18 1027.2 1026.6 0.0
20/04:00am 8.0 3.3 7.6 97 0.2 S 22 32 12 17 1026.9 1026.3 0.0
20/03:30am 8.6 4.1 8.5 99 0.1 S 22 30 12 16 1026.5 1025.9 0.0
20/03:00am 9.4 4.8 8.3 93 0.6 S 22 32 12 17 1026.3 1025.7 0.0
20/02:30am 9.4 5.0 8.9 97 0.3 S 22 28 12 15 1026.1 1025.5 0.0
20/02:00am 10.1 5.5 9.6 97 0.3 S 24 32 13 17 1025.8 1025.2 0.0
20/01:30am 10.4 6.9 10.2 99 0.1 S 19 30 10 16 1025.6 1025.0 0.0
20/01:00am 10.6 7.4 10.1 97 0.3 S 17 24 9 13 1025.4 1024.7 0.0
20/12:30am 11.2 9.7 10.4 95 0.4 S 9 13 5 7 1025.0 1024.4 0.0
20/12:00am 10.9 9.8 10.0 94 0.5 SE 6 9 3 5 1024.8 1024.2 0.0
 
Date/Time
EDT
Temp
°C
App
Temp
°C
Dew
Point
Rel
Hum
%
Delta-T
°C
Wind Press
QNH
hPa
Press
MSL
hPa
Rain
since 9 am
mm
Dir
 
Spd
km/h
Gust
km/h
Spd
kts
Gust
kts
19/11:30pm 12.2 9.3 8.3 77 2.0 S 13 22 7 12 1024.5 1023.9 0.0
19/11:00pm 14.8 12.8 7.1 60 3.9 WNW 7 9 4 5 1024.3 1023.6 0.0
19/10:30pm 15.4 13.4 6.2 54 4.6 W 6 9 3 5 1024.4 1023.8 0.0
19/10:00pm 15.2 12.3 6.5 56 4.4 WNW 11 15 6 8 1024.1 1023.4 0.0
19/09:30pm 16.1 12.1 6.5 53 4.9 WNW 17 20 9 11 1024.4 1023.8 0.0
19/09:00pm 16.1 12.2 7.1 55 4.6 W 17 19 9 10 1024.5 1023.9 0.0
19/08:30pm 15.9 12.5 7.7 58 4.3 W 15 19 8 10 1023.9 1023.2 0.0
19/08:00pm 17.1 13.0 8.0 55 4.8 W 19 20 10 11 1023.5 1022.9 0.0
19/07:30pm 17.5 13.8 8.1 54 5.0 W 17 20 9 11 1023.2 1022.6 0.0
19/07:00pm 18.3 14.8 8.8 54 5.1 WSW 17 19 9 10 1022.8 1022.1 0.0
19/06:30pm 19.2 14.5 7.9 48 6.0 WNW 22 30 12 16 1022.2 1021.6 0.0
19/06:00pm 19.3 16.5 11.3 60 4.5 W 17 20 9 11 1022.0 1021.4 0.0
19/05:30pm 20.8 19.1 11.2 54 5.5 W 11 13 6 7 1022.0 1021.4 0.0
19/05:00pm 21.4 20.8 13.6 61 4.6 W 9 11 5 6 1022.0 1021.4 0.0
19/04:30pm 22.6 20.9 9.7 44 7.2 WSW 9 13 5 7 1021.9 1021.2 0.0
19/04:00pm 23.6 22.3 12.6 50 6.5 WSW 11 15 6 8 1021.9 1021.2 0.0
19/03:30pm 24.3 22.2 9.8 40 8.2 W 11 17 6 9 1022.2 1021.6 0.0
19/03:00pm 23.8 20.2 9.8 41 7.9 WNW 19 24 10 13 1022.7 1022.0 0.0
19/02:30pm 22.1 19.7 9.9 46 6.9 NNW 13 17 7 9 1023.0 1022.3 0.0
19/02:00pm 23.1 20.4 8.8 40 7.9 WNW 13 24 7 13 1023.4 1022.8 0.0
19/01:30pm 23.6 21.5 9.9 42 7.8 W 11 19 6 10 1023.9 1023.2 0.0
19/01:00pm 23.3 21.3 8.6 39 8.1 WNW 9 15 5 8 1024.1 1023.4 0.0
19/12:30pm 22.6 19.5 9.0 42 7.5 WNW 15 20 8 11 1024.3 1023.6 0.0
19/12:00pm 21.9 18.8 8.8 43 7.2 NW 15 20 8 11 1024.5 1023.9 0.0
19/11:30am 19.7 16.8 9.6 52 5.6 NW 15 20 8 11 1024.8 1024.2 0.0
19/11:00am 18.6 16.4 10.7 60 4.4 NW 13 15 7 8 1025.1 1024.5 0.0
19/10:30am 16.5 14.8 9.9 65 3.6 NW 9 15 5 8 1025.4 1024.7 0.0
19/10:00am 15.3 13.7 10.1 71 2.8 NW 9 11 5 6 1025.6 1025.0 0.0
19/09:30am 13.4 12.5 10.6 83 1.5 NW 6 7 3 4 1025.7 1025.1 0.0
19/09:00am 11.5 10.5 11.0 97 0.3 NNW 7 11 4 6 1025.9 1025.3 0.0
19/08:30am 9.4 8.1 9.3 99 0.1 NNW 6 7 3 4 1026.1 1025.5 0.0
19/08:00am 8.7 7.7 8.7 100 0.0 N 4 6 2 3 1026.0 1025.4 0.0
19/07:30am 7.7 5.5 7.7 100 0.0 N 9 11 5 6 1025.8 1025.2 0.0
19/07:00am 5.6 3.5 5.6 100 0.0 NNW 6 7 3 4 1025.9 1025.3 0.0
19/06:30am 5.0 2.2 5.0 100 0.0 NNW 9 11 5 6 1025.5 1024.9 0.0
19/06:00am 4.9 2.0 4.9 100 0.0 NNW 9 11 5 6 1025.1 1024.5 0.0
19/05:30am 4.7 2.2 4.7 100 0.0 NNW 7 9 4 5 1025.1 1024.5 0.0
19/05:00am 5.2 3.0 5.2 100 0.0 N 6 7 3 4 1025.3 1024.6 0.0
19/04:30am 5.2 2.8 5.2 100 0.0 NNW 7 9 4 5 1025.1 1024.5 0.0
19/04:00am 5.4 3.0 5.4 100 0.0 NNW 7 9 4 5 1025.3 1024.6 0.0
19/03:30am 5.2 2.4 5.1 99 0.0 NNW 9 9 5 5 1025.3 1024.6 0.0
19/03:00am 6.8 4.9 6.8 100 0.0 NNW 6 7 3 4 1025.4 1024.7 0.0
19/02:30am 6.6 4.7 6.5 99 0.0 NW 6 7 3 4 1025.4 1024.7 0.0
19/02:00am 6.7 4.8 6.6 99 0.0 NW 6 7 3 4 1025.7 1025.1 0.0
19/01:30am 7.8 6.5 7.8 100 0.0 W 4 4 2 2 1026.1 1025.5 0.0
19/01:00am 7.2 5.4 7.1 99 0.0 W 6 7 3 4 1026.3 1025.7 0.0
19/12:30am 8.6 8.3 8.5 99 0.1 CALM 0 0 0 0 1026.5 1025.9 0.0
19/12:00am 9.0 8.4 8.9 99 0.1 W 2 6 1 3 1026.8 1026.2 0.0
 
Date/Time
EDT
Temp
°C
App
Temp
°C
Dew
Point
Rel
Hum
%
Delta-T
°C
Wind Press
QNH
hPa
Press
MSL
hPa
Rain
since 9 am
mm
Dir
 
Spd
km/h
Gust
km/h
Spd
kts
Gust
kts
18/11:30pm 9.1 7.6 9.0 99 0.1 WSW 7 7 4 4 1026.7 1026.1 0.0
18/11:00pm 9.0 8.0 8.9 99 0.1 NNE 4 6 2 3 1026.1 1025.5 0.0
18/10:30pm 9.3 9.1 9.2 99 0.1 CALM 0 0 0 0 1026.1 1025.5 0.0
18/10:00pm 10.6 10.0 10.4 99 0.1 ENE 4 6 2 3 1026.3 1025.7 0.0
18/09:30pm 10.7 9.7 10.4 98 0.2 ENE 6 9 3 5 1026.9 1026.3 0.0
18/09:00pm 11.2 10.3 10.6 96 0.3 ENE 6 7 3 4 1026.8 1026.2 0.0
18/08:30pm 11.6 10.7 10.7 94 0.5 ENE 6 7 3 4 1026.5 1025.9 0.0
18/08:00pm 12.1 11.0 10.7 91 0.8 ENE 7 9 4 5 1026.2 1025.6 0.0
18/07:30pm 12.8 11.4 10.9 88 1.0 ENE 9 15 5 8 1026.0 1025.4 0.0
18/07:00pm 13.9 12.1 10.7 81 1.7 E 11 15 6 8 1025.5 1024.9 0.0
18/06:30pm 15.9 14.5 9.6 66 3.4 NE 7 17 4 9 1025.0 1024.4 0.0
18/06:00pm 17.8 15.7 6.0 46 6.0 N 6 11 3 6 1024.9 1024.3 0.0
18/05:30pm 18.2 16.1 6.7 47 6.0 N 7 11 4 6 1024.7 1024.1 0.0
18/05:00pm 18.2 15.8 5.4 43 6.4 N 7 11 4 6 1024.8 1024.2 0.0
18/04:30pm 18.6 16.7 6.8 46 6.1 NNW 6 13 3 7 1024.9 1024.3 0.0
18/04:00pm 18.7 15.4 4.8 40 6.9 WNW 11 20 6 11 1025.3 1024.6 0.0
18/03:30pm 18.3 15.8 4.8 41 6.7 NW 7 11 4 6 1025.1 1024.5 0.0
18/03:00pm 18.0 15.4 6.2 46 6.0 NW 9 17 5 9 1025.8 1025.2 0.0
18/02:30pm 17.8 15.9 6.7 48 5.7 NNW 6 15 3 8 1026.1 1025.5 0.0
18/02:00pm 17.7 16.5 8.0 53 5.1 NE 4 15 2 8 1026.5 1025.9 0.0
18/01:30pm 16.6 14.4 7.8 56 4.6 N 9 15 5 8 1026.8 1026.2 0.0
18/01:00pm 16.2 14.2 6.9 54 4.8 NNW 7 11 4 6 1027.1 1026.5 0.0
18/12:30pm 15.8 13.8 6.3 53 4.8 WNW 6 9 3 5 1027.4 1026.8 0.0
18/12:00pm 14.8 12.4 7.1 60 3.9 NW 9 15 5 8 1027.8 1027.3 0.0

Other Formats:

Comma delimited format used in spreadsheet applications
http://www.bom.gov.au/fwo/IDN60801/IDN60801.94929.axf

JavaScript Object Notation format (JSON) in row-major order
http://www.bom.gov.au/fwo/IDN60801/IDN60801.94929.json